SAS845 EFVA-ENBO
Flight info
| Callsign | SAS845 |
|---|---|
| Flight time | N/A |
| Altitude | 31000 |
| Route | EFVA 16 UVAT2A UVATI DCT ENBO ADREL R25 |
| Aircraft | A346/M-VGDW/C |
Departure
| Time | 2026-05-04 18:55 |
|---|---|
| Airport | Vaasa Airport (EFVA) |
Arrival
| Time | N/A |
|---|---|
| Airport | Bodø Airport (ENBO) |
| Time | Latitude | Longitude | Altitude | Speed | Heading |
|---|---|---|---|---|---|
| 2026-05-04 18:49 | 63.04324 | 21.76243 | 33 ft | 0 kts | 286° |
| 2026-05-04 18:51 | 63.04324 | 21.76242 | 33 ft | 1 kts | 286° |
| 2026-05-04 18:52 | 63.04324 | 21.76246 | 32 ft | 1 kts | 286° |
| 2026-05-04 18:52 | 63.04318 | 21.76290 | 33 ft | 1 kts | 262° |
| 2026-05-04 18:52 | 63.04307 | 21.76257 | 33 ft | 9 kts | 233° |
| 2026-05-04 18:52 | 63.04256 | 21.76149 | 33 ft | 11 kts | 213° |
| 2026-05-04 18:53 | 63.04179 | 21.76057 | 33 ft | 14 kts | 205° |
| 2026-05-04 18:53 | 63.04102 | 21.76090 | 33 ft | 13 kts | 130° |
| 2026-05-04 18:53 | 63.04061 | 21.76286 | 33 ft | 15 kts | 110° |
| 2026-05-04 18:53 | 63.04019 | 21.76530 | 33 ft | 19 kts | 110° |
| 2026-05-04 18:54 | 63.03986 | 21.76812 | 33 ft | 16 kts | 68° |
| 2026-05-04 18:54 | 63.04133 | 21.76826 | 34 ft | 51 kts | 346° |
| 2026-05-04 18:54 | 63.04754 | 21.76386 | 36 ft | 134 kts | 340° |
| 2026-05-04 18:54 | 63.05849 | 21.75650 | 223 ft | 182 kts | 336° |
| 2026-05-04 18:55 | 63.07014 | 21.74476 | 1122 ft | 185 kts | 325° |
| 2026-05-04 18:55 | 63.09077 | 21.71185 | 3397 ft | 179 kts | 310° |
| 2026-05-04 18:55 | 63.09813 | 21.68882 | 4230 ft | 194 kts | 298° |
| 2026-05-04 18:56 | 63.10587 | 21.66214 | 4893 ft | 215 kts | 303° |
| 2026-05-04 18:56 | 63.11560 | 21.63527 | 5780 ft | 232 kts | 308° |
| 2026-05-04 18:56 | 63.12712 | 21.60865 | 6680 ft | 247 kts | 312° |
| 2026-05-04 18:56 | 63.13999 | 21.58169 | 7563 ft | 262 kts | 314° |
| 2026-05-04 18:57 | 63.15385 | 21.55437 | 8566 ft | 270 kts | 315° |
| 2026-05-04 18:57 | 63.16819 | 21.52680 | 9672 ft | 275 kts | 314° |
| 2026-05-04 18:57 | 63.18280 | 21.49895 | 10709 ft | 279 kts | 315° |
| 2026-05-04 18:57 | 63.19820 | 21.47233 | 11770 ft | 282 kts | 318° |
| 2026-05-04 18:58 | 63.21446 | 21.44779 | 12871 ft | 283 kts | 321° |
| 2026-05-04 18:58 | 63.23101 | 21.42469 | 13919 ft | 279 kts | 321° |
| 2026-05-04 18:58 | 63.24733 | 21.40220 | 14950 ft | 273 kts | 320° |
| 2026-05-04 18:58 | 63.26320 | 21.38033 | 15977 ft | 264 kts | 320° |
| 2026-05-04 18:59 | 63.27873 | 21.35883 | 16855 ft | 262 kts | 319° |
| 2026-05-04 18:59 | 63.29395 | 21.33760 | 17659 ft | 262 kts | 318° |
| 2026-05-04 18:59 | 63.30978 | 21.31537 | 18209 ft | 269 kts | 318° |
| 2026-05-04 18:59 | 63.32559 | 21.29314 | 18711 ft | 277 kts | 318° |
| 2026-05-04 19:00 | 63.34219 | 21.26983 | 19182 ft | 286 kts | 318° |
| 2026-05-04 19:00 | 63.35936 | 21.24575 | 19665 ft | 296 kts | 318° |
| 2026-05-04 19:00 | 63.37724 | 21.22061 | 19985 ft | 312 kts | 318° |
| 2026-05-04 19:00 | 63.39608 | 21.19416 | 20322 ft | 327 kts | 319° |
| 2026-05-04 19:01 | 63.41583 | 21.16655 | 20673 ft | 343 kts | 320° |
| 2026-05-04 19:01 | 63.43651 | 21.13773 | 21008 ft | 358 kts | 320° |
| 2026-05-04 19:01 | 63.45807 | 21.10773 | 21411 ft | 372 kts | 321° |
| 2026-05-04 19:01 | 63.48048 | 21.07641 | 21746 ft | 386 kts | 321° |
| 2026-05-04 19:02 | 63.50361 | 21.04415 | 22140 ft | 396 kts | 321° |
| 2026-05-04 19:02 | 63.52729 | 21.01117 | 22720 ft | 401 kts | 321° |
| 2026-05-04 19:02 | 63.55110 | 20.97790 | 23288 ft | 405 kts | 321° |
| 2026-05-04 19:02 | 63.57516 | 20.94416 | 23743 ft | 410 kts | 321° |
| 2026-05-04 19:03 | 63.59942 | 20.91003 | 24234 ft | 414 kts | 321° |
| 2026-05-04 19:03 | 63.62392 | 20.87547 | 24726 ft | 417 kts | 321° |
| 2026-05-04 19:03 | 63.64859 | 20.84057 | 25228 ft | 420 kts | 321° |
| 2026-05-04 19:03 | 63.67345 | 20.80531 | 25746 ft | 423 kts | 321° |
| 2026-05-04 19:04 | 63.69842 | 20.76981 | 26249 ft | 426 kts | 321° |
| 2026-05-04 19:04 | 63.72358 | 20.73395 | 26795 ft | 428 kts | 321° |
| 2026-05-04 19:04 | 63.74883 | 20.69788 | 27331 ft | 430 kts | 320° |
| 2026-05-04 19:04 | 63.77421 | 20.66155 | 27874 ft | 432 kts | 320° |
| 2026-05-04 19:05 | 63.79966 | 20.62505 | 28460 ft | 434 kts | 320° |
| 2026-05-04 19:05 | 63.82512 | 20.58829 | 29066 ft | 435 kts | 321° |
| 2026-05-04 19:05 | 63.85069 | 20.55136 | 29671 ft | 436 kts | 321° |
| 2026-05-04 19:05 | 63.87628 | 20.51442 | 30123 ft | 436 kts | 321° |
| 2026-05-04 19:06 | 63.90200 | 20.47722 | 30478 ft | 441 kts | 321° |
| 2026-05-04 19:06 | 63.92815 | 20.43921 | 30540 ft | 452 kts | 321° |
| 2026-05-04 19:06 | 63.95499 | 20.40007 | 30553 ft | 464 kts | 321° |
| 2026-05-04 19:06 | 63.98251 | 20.35988 | 30561 ft | 476 kts | 321° |
| 2026-05-04 19:07 | 64.01073 | 20.31863 | 30536 ft | 487 kts | 321° |
| 2026-05-04 19:07 | 64.03902 | 20.27723 | 30537 ft | 492 kts | 322° |
| 2026-05-04 19:07 | 64.09675 | 20.19261 | 30520 ft | 493 kts | 322° |
| 2026-05-04 19:08 | 64.15445 | 20.10752 | 30566 ft | 493 kts | 322° |
| 2026-05-04 19:08 | 64.21205 | 20.02188 | 30531 ft | 493 kts | 322° |
| 2026-05-04 19:09 | 64.26955 | 19.93616 | 30532 ft | 494 kts | 322° |
| 2026-05-04 19:09 | 64.32721 | 19.84970 | 30521 ft | 495 kts | 322° |
| 2026-05-04 19:10 | 64.38490 | 19.76275 | 30518 ft | 495 kts | 322° |
| 2026-05-04 19:10 | 64.44252 | 19.67542 | 30508 ft | 495 kts | 322° |
| 2026-05-04 19:11 | 64.50005 | 19.58778 | 30548 ft | 494 kts | 322° |
| 2026-05-04 19:11 | 64.55743 | 19.49982 | 30521 ft | 494 kts | 322° |
| 2026-05-04 19:12 | 64.64343 | 19.36737 | 30505 ft | 494 kts | 322° |
| 2026-05-04 19:13 | 64.70068 | 19.27858 | 30519 ft | 495 kts | 322° |
| 2026-05-04 19:13 | 64.75809 | 19.18907 | 30503 ft | 496 kts | 322° |
| 2026-05-04 19:14 | 64.81541 | 19.09927 | 30505 ft | 496 kts | 322° |
| 2026-05-04 19:14 | 64.87268 | 19.00896 | 30522 ft | 494 kts | 322° |
| 2026-05-04 19:15 | 64.92974 | 18.91863 | 30515 ft | 494 kts | 322° |
| 2026-05-04 19:15 | 64.98647 | 18.82838 | 30498 ft | 493 kts | 322° |
| 2026-05-04 19:16 | 65.04332 | 18.73743 | 30451 ft | 494 kts | 322° |
| 2026-05-04 19:16 | 65.07168 | 18.69188 | 30152 ft | 490 kts | 322° |
| 2026-05-04 19:16 | 65.09988 | 18.64646 | 29882 ft | 488 kts | 322° |
| 2026-05-04 19:16 | 65.12787 | 18.60122 | 29601 ft | 487 kts | 322° |
| 2026-05-04 19:17 | 65.15584 | 18.55593 | 29260 ft | 484 kts | 322° |
| 2026-05-04 19:17 | 65.18359 | 18.51089 | 28949 ft | 481 kts | 322° |
| 2026-05-04 19:17 | 65.21113 | 18.46604 | 28687 ft | 479 kts | 322° |
| 2026-05-04 19:17 | 65.23858 | 18.42120 | 28388 ft | 476 kts | 322° |
| 2026-05-04 19:18 | 65.26585 | 18.37662 | 28105 ft | 473 kts | 322° |
| 2026-05-04 19:18 | 65.29292 | 18.33224 | 27824 ft | 470 kts | 322° |
| 2026-05-04 19:18 | 65.31981 | 18.28806 | 27549 ft | 468 kts | 322° |
| 2026-05-04 19:18 | 65.34653 | 18.24402 | 27277 ft | 465 kts | 322° |
| 2026-05-04 19:19 | 65.37312 | 18.20009 | 27004 ft | 462 kts | 322° |
| 2026-05-04 19:19 | 65.39953 | 18.15633 | 26736 ft | 460 kts | 322° |
| 2026-05-04 19:19 | 65.42578 | 18.11273 | 26465 ft | 457 kts | 322° |
| 2026-05-04 19:19 | 65.45185 | 18.06933 | 26201 ft | 455 kts | 322° |
| 2026-05-04 19:20 | 65.47781 | 18.02599 | 25950 ft | 453 kts | 322° |
| 2026-05-04 19:20 | 65.50358 | 17.98288 | 25681 ft | 450 kts | 322° |
| 2026-05-04 19:20 | 65.52923 | 17.93980 | 25428 ft | 449 kts | 322° |
| 2026-05-04 19:20 | 65.55474 | 17.89680 | 25216 ft | 446 kts | 323° |
| 2026-05-04 19:21 | 65.58007 | 17.85403 | 24951 ft | 443 kts | 323° |
| 2026-05-04 19:21 | 65.60526 | 17.81150 | 24692 ft | 440 kts | 323° |
| 2026-05-04 19:21 | 65.63031 | 17.76914 | 24536 ft | 438 kts | 323° |
| 2026-05-04 19:21 | 65.65528 | 17.72678 | 24530 ft | 438 kts | 323° |
| 2026-05-04 19:22 | 65.68026 | 17.68432 | 24523 ft | 438 kts | 323° |
| 2026-05-04 19:22 | 65.70519 | 17.64182 | 24520 ft | 438 kts | 323° |
| 2026-05-04 19:22 | 65.73011 | 17.59923 | 24523 ft | 438 kts | 323° |
| 2026-05-04 19:22 | 65.75504 | 17.55650 | 24531 ft | 438 kts | 323° |
| 2026-05-04 19:23 | 65.77995 | 17.51370 | 24526 ft | 438 kts | 323° |
| 2026-05-04 19:23 | 65.80484 | 17.47084 | 24519 ft | 438 kts | 323° |
| 2026-05-04 19:23 | 65.82976 | 17.42783 | 24525 ft | 438 kts | 323° |
| 2026-05-04 19:23 | 65.85460 | 17.38485 | 24527 ft | 438 kts | 323° |
| 2026-05-04 19:24 | 65.87110 | 17.35623 | 24525 ft | 438 kts | 323° |
| 2026-05-04 19:24 | 65.89594 | 17.31306 | 24547 ft | 438 kts | 323° |
| 2026-05-04 19:24 | 65.92071 | 17.26988 | 24529 ft | 437 kts | 323° |
| 2026-05-04 19:24 | 65.94550 | 17.22660 | 24529 ft | 438 kts | 323° |
| 2026-05-04 19:25 | 65.97835 | 17.16912 | 24530 ft | 438 kts | 322° |
| 2026-05-04 19:25 | 66.00311 | 17.12551 | 24529 ft | 438 kts | 323° |
| 2026-05-04 19:25 | 66.01984 | 17.09591 | 24528 ft | 438 kts | 323° |
| 2026-05-04 19:25 | 66.05259 | 17.03809 | 24528 ft | 437 kts | 322° |
| 2026-05-04 19:26 | 66.06928 | 17.00844 | 24527 ft | 438 kts | 322° |
| 2026-05-04 19:26 | 66.09400 | 16.96458 | 24523 ft | 438 kts | 322° |
| 2026-05-04 19:26 | 66.11869 | 16.92063 | 24523 ft | 438 kts | 323° |
| 2026-05-04 19:26 | 66.14340 | 16.87661 | 24524 ft | 438 kts | 322° |
| 2026-05-04 19:27 | 66.16816 | 16.83258 | 24538 ft | 438 kts | 323° |
| 2026-05-04 19:27 | 66.19283 | 16.78839 | 24536 ft | 438 kts | 322° |
| 2026-05-04 19:27 | 66.21750 | 16.74410 | 24536 ft | 438 kts | 322° |
| 2026-05-04 19:27 | 66.24218 | 16.69968 | 24536 ft | 438 kts | 322° |
| 2026-05-04 19:28 | 66.26689 | 16.65526 | 24529 ft | 438 kts | 322° |
| 2026-05-04 19:28 | 66.29148 | 16.61083 | 24530 ft | 438 kts | 322° |
| 2026-05-04 19:28 | 66.31613 | 16.56615 | 24545 ft | 438 kts | 322° |
| 2026-05-04 19:28 | 66.34074 | 16.52155 | 24545 ft | 437 kts | 322° |
| 2026-05-04 19:29 | 66.36536 | 16.47680 | 24548 ft | 438 kts | 321° |
| 2026-05-04 19:29 | 66.38994 | 16.43179 | 24546 ft | 439 kts | 321° |
| 2026-05-04 19:29 | 66.41421 | 16.38724 | 24545 ft | 439 kts | 322° |
| 2026-05-04 19:29 | 66.43887 | 16.34202 | 24542 ft | 439 kts | 321° |
| 2026-05-04 19:30 | 66.46349 | 16.29691 | 24555 ft | 439 kts | 322° |
| 2026-05-04 19:30 | 66.48806 | 16.25146 | 24555 ft | 438 kts | 322° |
| 2026-05-04 19:30 | 66.51223 | 16.20683 | 24550 ft | 424 kts | 322° |
| 2026-05-04 19:30 | 66.53577 | 16.16330 | 24553 ft | 420 kts | 322° |
| 2026-05-04 19:31 | 66.55929 | 16.11975 | 24556 ft | 419 kts | 322° |
| 2026-05-04 19:31 | 66.58281 | 16.07590 | 24572 ft | 419 kts | 321° |
| 2026-05-04 19:31 | 66.60617 | 16.03222 | 24571 ft | 418 kts | 321° |
| 2026-05-04 19:31 | 66.62950 | 15.98865 | 24567 ft | 417 kts | 321° |
| 2026-05-04 19:32 | 66.65284 | 15.94498 | 24566 ft | 417 kts | 321° |
| 2026-05-04 19:32 | 66.67609 | 15.90134 | 24566 ft | 416 kts | 321° |
| 2026-05-04 19:32 | 66.69933 | 15.85742 | 24563 ft | 417 kts | 322° |
| 2026-05-04 19:32 | 66.72259 | 15.81349 | 24573 ft | 416 kts | 321° |
| 2026-05-04 19:33 | 66.74540 | 15.77042 | 24569 ft | 402 kts | 321° |
| 2026-05-04 19:33 | 66.76739 | 15.72860 | 24574 ft | 392 kts | 322° |
| 2026-05-04 19:33 | 66.78924 | 15.68698 | 24545 ft | 394 kts | 322° |
| 2026-05-04 19:33 | 66.81120 | 15.64527 | 24165 ft | 392 kts | 321° |
| 2026-05-04 19:34 | 66.83283 | 15.60407 | 23351 ft | 387 kts | 321° |
| 2026-05-04 19:34 | 66.85401 | 15.56342 | 22647 ft | 376 kts | 322° |
| 2026-05-04 19:34 | 66.87456 | 15.52383 | 21978 ft | 364 kts | 321° |
| 2026-05-04 19:34 | 66.89445 | 15.48574 | 21398 ft | 352 kts | 321° |
| 2026-05-04 19:35 | 66.91369 | 15.44851 | 20738 ft | 343 kts | 321° |
| 2026-05-04 19:35 | 66.93252 | 15.41211 | 20061 ft | 336 kts | 321° |
| 2026-05-04 19:35 | 66.95101 | 15.37631 | 19343 ft | 331 kts | 321° |
| 2026-05-04 19:35 | 66.96924 | 15.34096 | 18640 ft | 326 kts | 320° |
| 2026-05-04 19:36 | 66.98717 | 15.30612 | 17947 ft | 322 kts | 320° |
| 2026-05-04 19:36 | 67.00488 | 15.27165 | 17165 ft | 318 kts | 320° |
| 2026-05-04 19:36 | 67.02239 | 15.23743 | 16334 ft | 316 kts | 320° |
| 2026-05-04 19:36 | 67.03981 | 15.20333 | 15508 ft | 314 kts | 321° |
| 2026-05-04 19:37 | 67.05687 | 15.16989 | 14699 ft | 312 kts | 321° |
| 2026-05-04 19:37 | 67.07409 | 15.13610 | 13922 ft | 310 kts | 321° |
| 2026-05-04 19:37 | 67.09140 | 15.10209 | 13113 ft | 308 kts | 321° |
| 2026-05-04 19:37 | 67.10812 | 15.06919 | 12282 ft | 305 kts | 321° |
| 2026-05-04 19:38 | 67.12487 | 15.03617 | 11457 ft | 302 kts | 321° |
| 2026-05-04 19:38 | 67.14148 | 15.00330 | 10650 ft | 299 kts | 321° |
| 2026-05-04 19:38 | 67.15787 | 14.97116 | 9978 ft | 293 kts | 322° |
| 2026-05-04 19:38 | 67.17509 | 14.94465 | 9274 ft | 289 kts | 341° |
| 2026-05-04 19:39 | 67.19499 | 14.93604 | 8584 ft | 284 kts | 355° |
| 2026-05-04 19:39 | 67.21434 | 14.94027 | 7908 ft | 283 kts | 9° |
| 2026-05-04 19:39 | 67.23338 | 14.95221 | 7246 ft | 280 kts | 12° |
| 2026-05-04 19:39 | 67.25194 | 14.96548 | 6721 ft | 272 kts | 13° |
| 2026-05-04 19:40 | 67.26951 | 14.97853 | 6571 ft | 252 kts | 13° |
| 2026-05-04 19:40 | 67.28555 | 14.99075 | 6559 ft | 229 kts | 13° |
| 2026-05-04 19:40 | 67.30026 | 14.99898 | 6519 ft | 204 kts | 352° |